createdAt,value
2018-01-23T00:00:58.895Z,5.50
2018-01-23T00:03:26.328Z,5.50
2018-01-23T00:05:53.739Z,5.60
2018-01-23T00:08:21.155Z,5.60
2018-01-23T00:10:48.571Z,5.60
2018-01-23T00:13:15.991Z,5.60
2018-01-23T00:15:43.419Z,5.60
2018-01-23T00:18:12.351Z,5.60
2018-01-23T00:20:39.768Z,5.60
2018-01-23T00:23:07.191Z,5.50
2018-01-23T00:25:35.398Z,5.50
2018-01-23T00:28:02.832Z,5.50
2018-01-23T00:30:30.251Z,5.50
2018-01-23T00:32:57.679Z,5.50
2018-01-23T00:35:25.095Z,5.50
2018-01-23T00:37:52.533Z,5.50
2018-01-23T00:40:19.943Z,5.50
2018-01-23T00:42:47.383Z,5.50
2018-01-23T00:45:14.798Z,5.50
2018-01-23T00:47:42.215Z,5.50
2018-01-23T00:50:10.420Z,5.60
2018-01-23T00:52:37.851Z,5.50
2018-01-23T00:55:05.267Z,5.60
2018-01-23T00:57:32.747Z,5.50
2018-01-23T01:00:00.175Z,5.50
2018-01-23T01:02:27.619Z,5.50
2018-01-23T01:04:55.055Z,5.60
2018-01-23T01:07:22.480Z,5.60
2018-01-23T01:09:49.943Z,5.60
2018-01-23T01:12:17.344Z,5.60
2018-01-23T01:14:45.536Z,5.60
2018-01-23T01:17:12.951Z,5.60
2018-01-23T01:19:41.143Z,5.60
2018-01-23T01:22:08.563Z,5.60
2018-01-23T01:24:35.978Z,5.60
2018-01-23T01:27:04.163Z,5.60
2018-01-23T01:29:31.583Z,5.60
2018-01-23T01:31:59.783Z,5.70
2018-01-23T01:34:27.203Z,5.60
2018-01-23T01:36:54.623Z,5.70
2018-01-23T01:39:22.818Z,5.70
2018-01-23T01:41:50.231Z,5.70
2018-01-23T01:44:18.423Z,5.70
2018-01-23T01:46:45.851Z,5.70
2018-01-23T01:49:13.267Z,5.70
2018-01-23T01:51:41.468Z,5.70
2018-01-23T01:54:08.904Z,5.70
2018-01-23T01:56:36.323Z,5.70
2018-01-23T01:59:03.747Z,5.70
2018-01-23T02:01:31.936Z,5.60
2018-01-23T02:03:59.356Z,5.60
2018-01-23T02:06:27.543Z,5.60
2018-01-23T02:08:54.969Z,5.60
2018-01-23T02:11:22.396Z,5.60
2018-01-23T02:13:50.588Z,5.60
2018-01-23T02:16:18.020Z,5.60
2018-01-23T02:18:45.447Z,5.60
2018-01-23T02:21:12.871Z,5.60
2018-01-23T02:23:41.060Z,5.50
2018-01-23T02:26:08.484Z,5.50
2018-01-23T02:28:36.679Z,5.50
2018-01-23T02:31:04.114Z,5.50
2018-01-23T02:33:31.573Z,5.50
2018-01-23T02:35:59.027Z,5.60
2018-01-23T02:38:26.444Z,5.60
2018-01-23T02:40:53.872Z,5.60
2018-01-23T02:43:21.295Z,5.60
2018-01-23T02:45:49.477Z,5.60
2018-01-23T02:48:16.900Z,5.60
2018-01-23T02:50:45.080Z,5.60
2018-01-23T02:53:12.491Z,5.60
2018-01-23T02:55:39.932Z,5.60
2018-01-23T02:58:08.134Z,5.60
2018-01-23T03:00:35.553Z,5.50
2018-01-23T03:03:02.973Z,5.50
2018-01-23T03:05:31.167Z,5.60
2018-01-23T03:07:59.359Z,5.60
2018-01-23T03:10:26.779Z,5.50
2018-01-23T03:12:54.199Z,5.50
2018-01-23T03:15:21.615Z,5.60
2018-01-23T03:17:49.801Z,5.60
2018-01-23T03:20:17.268Z,5.50
2018-01-23T03:22:44.740Z,5.50
2018-01-23T03:25:12.151Z,5.50
2018-01-23T03:27:39.571Z,5.50
2018-01-23T03:30:07.000Z,5.50
2018-01-23T03:32:34.472Z,5.50
2018-01-23T03:35:01.926Z,5.50
2018-01-23T03:37:29.335Z,5.40
2018-01-23T03:39:56.771Z,5.50
2018-01-23T03:42:24.203Z,5.50
2018-01-23T03:44:51.623Z,5.40
2018-01-23T03:47:19.807Z,5.40
2018-01-23T03:49:47.235Z,5.40
2018-01-23T03:52:14.656Z,5.40
2018-01-23T03:54:42.071Z,5.40
2018-01-23T03:57:09.607Z,5.40
2018-01-23T03:59:37.257Z,5.40
2018-01-23T04:02:05.383Z,5.40
2018-01-23T04:04:32.850Z,5.30
2018-01-23T04:07:00.267Z,5.30
2018-01-23T04:09:27.688Z,5.40
2018-01-23T04:11:55.179Z,5.40
2018-01-23T04:14:22.617Z,5.40
2018-01-23T04:16:50.031Z,5.40
2018-01-23T04:19:17.447Z,5.40
2018-01-23T04:21:45.632Z,5.40
2018-01-23T04:24:13.052Z,5.40
2018-01-23T04:26:41.248Z,5.40
2018-01-23T04:29:08.663Z,5.40
2018-01-23T04:31:36.091Z,5.50
2018-01-23T04:34:04.288Z,5.40
2018-01-23T04:36:31.719Z,5.40
2018-01-23T04:38:59.127Z,5.40
2018-01-23T04:41:27.335Z,5.50
2018-01-23T04:43:54.731Z,5.40
2018-01-23T04:46:22.922Z,5.40
2018-01-23T04:48:50.340Z,5.40
2018-01-23T04:51:17.764Z,5.40
2018-01-23T04:53:45.943Z,5.40
2018-01-23T04:56:13.376Z,5.40
2018-01-23T04:58:41.567Z,5.30
2018-01-23T05:01:08.983Z,5.30
2018-01-23T05:03:36.407Z,5.30
2018-01-23T05:06:04.591Z,5.30
2018-01-23T05:08:32.071Z,5.30
2018-01-23T05:10:59.483Z,5.40
2018-01-23T05:13:26.908Z,5.30
2018-01-23T05:15:54.340Z,5.30
2018-01-23T05:18:22.527Z,5.30
2018-01-23T05:20:49.951Z,5.20
2018-01-23T05:23:17.376Z,5.20
2018-01-23T05:25:45.559Z,5.20
2018-01-23T05:28:13.028Z,5.20
2018-01-23T05:30:40.451Z,5.20
2018-01-23T05:33:07.859Z,5.20
2018-01-23T05:35:36.048Z,5.20
2018-01-23T05:38:03.460Z,5.10
2018-01-23T05:40:31.652Z,5.20
2018-01-23T05:42:59.067Z,5.20
2018-01-23T05:45:26.496Z,5.30
2018-01-23T05:47:53.901Z,5.20
2018-01-23T05:50:21.327Z,5.30
2018-01-23T05:52:48.759Z,5.20
2018-01-23T05:55:16.180Z,5.20
2018-01-23T05:57:43.600Z,5.10
2018-01-23T06:00:11.801Z,5.10
2018-01-23T06:02:39.220Z,5.10
2018-01-23T06:05:06.651Z,5.10
2018-01-23T06:07:34.845Z,5.10
2018-01-23T06:10:02.255Z,5.10
2018-01-23T06:12:30.439Z,5.10
2018-01-23T06:14:57.859Z,5.10
2018-01-23T06:17:26.059Z,5.10
2018-01-23T06:19:53.476Z,5.10
2018-01-23T06:22:20.900Z,5.20
2018-01-23T06:24:48.324Z,5.20
2018-01-23T06:27:16.499Z,5.10
2018-01-23T06:29:43.927Z,5.10
2018-01-23T06:32:12.111Z,5.00
2018-01-23T06:34:39.536Z,5.00
2018-01-23T06:37:07.735Z,4.90
2018-01-23T06:39:35.149Z,4.90
2018-01-23T06:42:02.569Z,4.80
2018-01-23T06:44:30.768Z,4.80
2018-01-23T06:46:58.175Z,4.80
2018-01-23T06:49:26.397Z,4.70
2018-01-23T06:51:53.818Z,4.70
2018-01-23T06:54:21.237Z,4.70
2018-01-23T06:56:48.655Z,4.60
2018-01-23T06:59:16.856Z,4.60
2018-01-23T07:01:44.276Z,4.60
2018-01-23T07:04:11.706Z,4.60
2018-01-23T07:06:39.891Z,4.70
2018-01-23T07:09:07.307Z,4.60
2018-01-23T07:11:34.735Z,4.60
2018-01-23T07:14:02.915Z,4.70
2018-01-23T07:16:30.343Z,4.60
2018-01-23T07:18:58.538Z,4.70
2018-01-23T07:21:25.964Z,4.70
2018-01-23T07:23:53.379Z,4.70
2018-01-23T07:26:21.612Z,4.70
2018-01-23T07:28:48.984Z,4.70
2018-01-23T07:31:16.412Z,4.70
2018-01-23T07:33:43.836Z,4.70
2018-01-23T07:36:11.259Z,4.70
2018-01-23T07:38:38.683Z,4.70
2018-01-23T07:41:06.112Z,4.70
2018-01-23T07:43:33.528Z,4.80
2018-01-23T07:46:01.723Z,4.80
2018-01-23T07:48:29.159Z,4.80
2018-01-23T07:50:56.579Z,4.80
2018-01-23T07:53:24.008Z,4.80
2018-01-23T07:55:52.199Z,4.70
2018-01-23T07:58:20.379Z,4.70
2018-01-23T08:00:47.808Z,4.70
2018-01-23T08:03:15.243Z,4.70
2018-01-23T08:05:42.679Z,4.70
2018-01-23T08:08:10.099Z,4.80
2018-01-23T08:10:38.298Z,5.00
2018-01-23T08:13:05.716Z,5.00
2018-01-23T08:15:33.143Z,5.10
2018-01-23T08:18:01.336Z,5.20
2018-01-23T08:20:28.781Z,5.20
2018-01-23T08:22:56.199Z,5.30
2018-01-23T08:25:23.623Z,5.30
2018-01-23T08:27:51.808Z,5.40
2018-01-23T08:30:19.240Z,5.40
2018-01-23T08:32:46.663Z,5.40
2018-01-23T08:35:14.864Z,5.50
2018-01-23T08:37:42.290Z,5.50
2018-01-23T08:40:10.475Z,5.50
2018-01-23T08:42:37.904Z,5.50
2018-01-23T08:45:05.345Z,5.50
2018-01-23T08:47:32.807Z,5.50
2018-01-23T08:50:00.223Z,5.50
2018-01-23T08:52:27.643Z,5.50
2018-01-23T08:54:55.075Z,5.60
2018-01-23T08:57:23.255Z,5.60
2018-01-23T08:59:50.676Z,5.60
2018-01-23T09:02:18.104Z,5.60
2018-01-23T09:04:46.291Z,5.50
2018-01-23T09:07:13.759Z,5.50
2018-01-23T09:09:41.947Z,5.50
2018-01-23T09:12:09.375Z,5.50
2018-01-23T09:14:36.799Z,5.50
2018-01-23T09:17:04.220Z,5.60
2018-01-23T09:19:31.636Z,5.60
2018-01-23T09:21:59.815Z,5.70
2018-01-23T09:24:27.240Z,5.60
2018-01-23T09:26:55.427Z,5.70
2018-01-23T09:29:22.851Z,5.70
2018-01-23T09:31:50.272Z,5.70
2018-01-23T09:34:18.459Z,5.70
2018-01-23T09:36:45.925Z,5.70
2018-01-23T09:39:13.348Z,5.70
2018-01-23T09:41:40.771Z,5.80
2018-01-23T09:44:08.202Z,5.80
2018-01-23T09:46:36.395Z,5.90
2018-01-23T09:49:03.830Z,5.90
2018-01-23T09:51:31.236Z,6.00
2018-01-23T09:53:59.472Z,6.10
2018-01-23T09:56:26.879Z,6.10
2018-01-23T09:58:54.303Z,6.20
2018-01-23T10:01:21.735Z,6.20
2018-01-23T10:03:49.215Z,6.30
2018-01-23T10:06:16.639Z,6.40
2018-01-23T10:08:44.068Z,6.40
2018-01-23T10:11:11.479Z,6.40
2018-01-23T10:13:39.683Z,6.50
2018-01-23T10:16:07.107Z,6.50
2018-01-23T10:18:34.531Z,6.50
2018-01-23T10:21:02.716Z,6.50
2018-01-23T10:23:30.139Z,6.50
2018-01-23T10:25:57.569Z,6.50
2018-01-23T10:28:25.756Z,6.60
2018-01-23T10:30:53.172Z,6.60
2018-01-23T10:33:21.355Z,6.70
2018-01-23T10:35:48.827Z,6.70
2018-01-23T10:38:16.243Z,6.80
2018-01-23T10:40:43.692Z,6.90
2018-01-23T10:43:11.227Z,6.90
2018-01-23T10:45:38.644Z,7.00
2018-01-23T10:48:06.831Z,7.10
2018-01-23T10:50:34.249Z,7.10
2018-01-23T10:53:02.432Z,7.10
2018-01-23T10:55:29.849Z,7.10
2018-01-23T10:57:58.044Z,7.20
2018-01-23T11:00:25.472Z,7.20
2018-01-23T11:02:52.883Z,7.30
2018-01-23T11:05:21.087Z,7.20
2018-01-23T11:07:48.511Z,7.20
2018-01-23T11:10:15.968Z,7.30
2018-01-23T11:12:43.407Z,7.30
2018-01-23T11:15:10.819Z,7.30
2018-01-23T11:17:38.304Z,7.20
2018-01-23T11:20:05.728Z,7.30
2018-01-23T11:22:33.144Z,7.30
2018-01-23T11:25:00.575Z,7.30
2018-01-23T11:27:28.767Z,7.40
2018-01-23T11:29:56.183Z,7.40
2018-01-23T11:32:23.595Z,7.50
2018-01-23T11:34:51.023Z,7.60
2018-01-23T11:37:18.435Z,7.60
2018-01-23T11:39:45.866Z,7.80
2018-01-23T11:42:13.289Z,8.00
2018-01-23T11:44:41.472Z,8.30
2018-01-23T11:47:08.902Z,8.30
2018-01-23T11:49:36.328Z,8.40
2018-01-23T11:52:03.748Z,8.40
2018-01-23T11:54:31.184Z,8.50
2018-01-23T11:56:58.603Z,8.70
2018-01-23T11:59:26.021Z,9.00
2018-01-23T12:01:53.439Z,9.10
2018-01-23T12:04:20.868Z,9.30
2018-01-23T12:06:49.043Z,9.70
2018-01-23T12:09:16.463Z,9.70
2018-01-23T12:11:44.644Z,11.00
2018-01-23T12:14:12.063Z,11.00
2018-01-23T12:16:40.251Z,11.70
2018-01-23T12:19:07.680Z,11.70
2018-01-23T12:21:35.102Z,12.20
2018-01-23T12:24:03.291Z,11.10
2018-01-23T12:26:30.711Z,11.00
2018-01-23T12:28:58.909Z,9.90
2018-01-23T12:31:26.328Z,9.90
2018-01-23T12:33:53.746Z,9.60
2018-01-23T12:36:21.935Z,9.40
2018-01-23T12:38:49.359Z,9.40
2018-01-23T12:41:16.786Z,9.50
2018-01-23T12:43:44.195Z,9.40
2018-01-23T12:46:11.623Z,9.30
2018-01-23T12:48:39.055Z,9.00
2018-01-23T12:51:06.484Z,8.90
2018-01-23T12:53:33.911Z,8.70
2018-01-23T12:56:01.323Z,8.60
2018-01-23T12:58:28.752Z,8.70
2018-01-23T13:00:56.180Z,8.70
2018-01-23T13:03:23.587Z,8.70
2018-01-23T13:05:51.068Z,8.60
2018-01-23T13:08:18.488Z,8.60
2018-01-23T13:10:45.907Z,8.50
2018-01-23T13:13:13.323Z,8.60
2018-01-23T13:15:41.516Z,8.70
2018-01-23T13:18:08.935Z,8.60
2018-01-23T13:20:37.116Z,8.70
2018-01-23T13:23:04.544Z,8.60
2018-01-23T13:25:31.962Z,8.60
2018-01-23T13:28:00.160Z,8.40
2018-01-23T13:30:27.582Z,8.40
2018-01-23T13:32:54.996Z,8.40
2018-01-23T13:35:23.180Z,8.30
2018-01-23T13:37:50.662Z,8.30
2018-01-23T13:40:18.075Z,8.20
2018-01-23T13:42:45.501Z,8.10
2018-01-23T13:45:13.680Z,8.00
2018-01-23T13:47:41.279Z,8.00
2018-01-23T13:50:08.672Z,8.00
2018-01-23T13:52:36.091Z,8.10
2018-01-23T13:55:03.520Z,8.10
2018-01-23T13:57:31.703Z,8.30
2018-01-23T13:59:59.168Z,8.20
2018-01-23T14:02:26.623Z,8.30
2018-01-23T14:04:54.056Z,8.40
2018-01-23T14:07:21.503Z,8.40
2018-01-23T14:09:48.928Z,8.50
2018-01-23T14:12:16.352Z,8.60
2018-01-23T14:14:43.780Z,8.50
2018-01-23T14:17:11.200Z,8.50
2018-01-23T14:19:39.394Z,8.50
2018-01-23T14:22:06.807Z,8.50
2018-01-23T14:24:35.000Z,8.50
2018-01-23T14:27:02.415Z,8.40
2018-01-23T14:29:30.599Z,8.40
2018-01-23T14:31:58.017Z,8.40
2018-01-23T14:34:26.237Z,8.30
2018-01-23T14:36:53.667Z,8.30
2018-01-23T14:39:21.094Z,8.20
2018-01-23T14:41:48.511Z,8.20
2018-01-23T14:44:15.924Z,8.20
2018-01-23T14:46:43.339Z,8.20
2018-01-23T14:49:10.764Z,8.20
2018-01-23T14:51:38.187Z,8.20
2018-01-23T14:54:05.603Z,8.20
2018-01-23T14:56:33.787Z,8.10
2018-01-23T14:59:01.203Z,8.10
2018-01-23T15:01:29.385Z,8.20
2018-01-23T15:03:56.803Z,8.20
2018-01-23T15:06:24.983Z,8.20
2018-01-23T15:08:52.414Z,8.10
2018-01-23T15:11:19.828Z,8.10
2018-01-23T15:13:48.015Z,8.00
2018-01-23T15:16:15.428Z,8.00
2018-01-23T15:18:42.857Z,7.90
2018-01-23T15:21:10.260Z,7.80
2018-01-23T15:23:37.679Z,7.70
2018-01-23T15:26:05.109Z,7.70
2018-01-23T15:28:33.295Z,7.60
2018-01-23T15:31:00.721Z,7.60
2018-01-23T15:33:28.208Z,7.60
2018-01-23T15:35:55.624Z,7.60
2018-01-23T15:38:23.047Z,7.50
2018-01-23T15:40:50.467Z,7.50
2018-01-23T15:43:18.659Z,7.40
2018-01-23T15:45:46.071Z,7.40
2018-01-23T15:48:14.263Z,7.40
2018-01-23T15:50:41.678Z,7.40
2018-01-23T15:53:09.869Z,7.40
2018-01-23T15:55:37.275Z,7.40
2018-01-23T15:58:05.470Z,7.40
2018-01-23T16:00:32.895Z,7.40
2018-01-23T16:03:00.319Z,7.40
2018-01-23T16:05:28.500Z,7.40
2018-01-23T16:07:55.916Z,7.40
2018-01-23T16:10:24.106Z,7.40
2018-01-23T16:12:51.527Z,7.40
2018-01-23T16:15:18.959Z,7.40
2018-01-23T16:17:47.136Z,7.40
2018-01-23T16:20:14.619Z,7.40
2018-01-23T16:22:42.027Z,7.40
2018-01-23T16:25:09.452Z,7.30
2018-01-23T16:27:36.881Z,7.30
2018-01-23T16:30:05.056Z,7.40
2018-01-23T16:32:32.487Z,7.40
2018-01-23T16:34:59.903Z,7.40
2018-01-23T16:37:27.324Z,7.40
2018-01-23T16:39:54.761Z,7.40
2018-01-23T16:42:22.179Z,7.40
2018-01-23T16:44:49.599Z,7.40
2018-01-23T16:47:17.017Z,7.40
2018-01-23T16:49:44.435Z,7.40
2018-01-23T16:52:11.856Z,7.40
2018-01-23T16:54:40.040Z,7.40
2018-01-23T16:57:08.219Z,7.40
2018-01-23T16:59:35.638Z,7.40
2018-01-23T17:02:03.823Z,7.50
2018-01-23T17:04:31.259Z,7.50
2018-01-23T17:06:58.681Z,7.60
2018-01-23T17:09:26.868Z,7.60
2018-01-23T17:11:54.287Z,7.60
2018-01-23T17:14:22.479Z,7.60
2018-01-23T17:16:49.891Z,7.50
2018-01-23T17:19:18.079Z,7.40
2018-01-23T17:21:45.496Z,7.40
2018-01-23T17:24:13.676Z,7.40
2018-01-23T17:26:41.099Z,7.40
2018-01-23T17:29:09.276Z,7.30
2018-01-23T17:31:36.703Z,7.30
2018-01-23T17:34:04.137Z,7.30
2018-01-23T17:36:31.560Z,7.30
2018-01-23T17:38:58.979Z,7.20
2018-01-23T17:41:27.164Z,7.20
2018-01-23T17:43:54.594Z,7.20
2018-01-23T17:46:22.014Z,7.20
2018-01-23T17:48:50.204Z,7.10
2018-01-23T17:51:17.702Z,7.00
2018-01-23T17:53:45.105Z,7.00
2018-01-23T17:56:12.527Z,7.00
2018-01-23T17:58:39.939Z,7.00
2018-01-23T18:01:08.128Z,6.80
2018-01-23T18:03:35.559Z,6.80
2018-01-23T18:06:03.040Z,6.80
2018-01-23T18:08:30.463Z,6.70
2018-01-23T18:10:57.887Z,6.60
2018-01-23T18:13:25.304Z,6.60
2018-01-23T18:15:53.492Z,6.50
2018-01-23T18:18:20.920Z,6.50
2018-01-23T18:20:49.159Z,6.40
2018-01-23T18:23:16.565Z,6.30
2018-01-23T18:25:44.011Z,6.30
2018-01-23T18:28:11.424Z,6.20
2018-01-23T18:30:38.906Z,6.10
2018-01-23T18:33:06.315Z,6.00
2018-01-23T18:35:33.742Z,5.90
2018-01-23T18:38:01.230Z,5.80
2018-01-23T18:40:28.687Z,5.80
2018-01-23T18:42:56.159Z,5.80
2018-01-23T18:45:24.381Z,5.80
2018-01-23T18:47:51.802Z,5.80
2018-01-23T18:50:19.247Z,5.70
2018-01-23T18:52:46.709Z,5.60
2018-01-23T18:55:14.131Z,5.60
2018-01-23T18:57:41.555Z,5.60
2018-01-23T19:00:09.429Z,5.50
2018-01-23T19:02:36.845Z,5.50
2018-01-23T19:05:04.319Z,5.50
2018-01-23T19:07:31.781Z,5.50
2018-01-23T19:09:59.955Z,5.40
2018-01-23T19:12:28.181Z,5.40
2018-01-23T19:14:55.600Z,5.40
2018-01-23T19:17:23.083Z,5.40
2018-01-23T19:19:50.492Z,5.30
2018-01-23T19:22:17.978Z,5.20
2018-01-23T19:24:45.380Z,5.20
2018-01-23T19:27:13.609Z,5.20
2018-01-23T19:29:41.032Z,5.20
2018-01-23T19:32:09.267Z,5.20
2018-01-23T19:34:36.718Z,5.10
2018-01-23T19:37:04.186Z,5.20
2018-01-23T19:39:32.349Z,5.20
2018-01-23T19:41:59.823Z,5.20
2018-01-23T19:44:27.249Z,5.30
2018-01-23T19:46:54.722Z,5.30
2018-01-23T19:49:22.174Z,5.30
2018-01-23T19:51:49.575Z,5.40
2018-01-23T19:54:17.003Z,5.40
2018-01-23T19:56:44.444Z,5.40
2018-01-23T19:59:13.566Z,5.40
2018-01-23T20:01:41.037Z,5.40
2018-01-23T20:04:08.435Z,5.40
2018-01-23T20:06:35.871Z,5.50
2018-01-23T20:09:03.333Z,5.50
2018-01-23T20:11:30.803Z,5.60
2018-01-23T20:13:58.274Z,5.60
2018-01-23T20:16:25.731Z,5.60
2018-01-23T20:18:53.186Z,5.50
2018-01-23T20:21:20.641Z,5.50
2018-01-23T20:23:48.103Z,5.50
2018-01-23T20:26:17.103Z,5.50
2018-01-23T20:28:44.533Z,5.50
2018-01-23T20:31:12.707Z,5.60
2018-01-23T20:33:40.179Z,5.50
2018-01-23T20:36:07.653Z,5.50
2018-01-23T20:38:35.098Z,5.50
2018-01-23T20:41:02.523Z,5.50
2018-01-23T20:43:29.967Z,5.60
2018-01-23T20:45:57.435Z,5.50
2018-01-23T20:48:24.903Z,5.50
2018-01-23T20:50:53.076Z,5.40
2018-01-23T20:53:20.575Z,5.40
2018-01-23T20:55:48.039Z,5.40
2018-01-23T20:58:16.295Z,5.50
2018-01-23T21:00:44.561Z,5.50
2018-01-23T21:03:12.014Z,5.40
2018-01-23T21:05:40.235Z,5.30
2018-01-23T21:08:07.699Z,5.30
2018-01-23T21:10:35.879Z,5.20
2018-01-23T21:13:03.350Z,5.20
2018-01-23T21:15:30.780Z,5.20
2018-01-23T21:17:58.263Z,5.10
2018-01-23T21:20:25.681Z,5.20
2018-01-23T21:22:53.137Z,5.20
2018-01-23T21:25:20.608Z,5.20
2018-01-23T21:27:48.829Z,5.20
2018-01-23T21:30:16.338Z,5.20
2018-01-23T21:32:44.515Z,5.30
2018-01-23T21:35:11.959Z,5.30
2018-01-23T21:37:39.376Z,5.40
2018-01-23T21:40:06.840Z,5.40
2018-01-23T21:42:34.245Z,5.50
2018-01-23T21:45:01.673Z,5.50
2018-01-23T21:47:29.863Z,5.50
2018-01-23T21:49:57.292Z,5.50
2018-01-23T21:52:24.794Z,5.50
2018-01-23T21:54:52.253Z,5.50
2018-01-23T21:57:19.702Z,5.50
2018-01-23T21:59:47.107Z,5.60
2018-01-23T22:02:14.565Z,5.60
2018-01-23T22:04:41.971Z,5.70
2018-01-23T22:07:09.451Z,5.70
2018-01-23T22:09:36.901Z,5.70
2018-01-23T22:12:04.342Z,5.80
2018-01-23T22:14:31.755Z,5.80
2018-01-23T22:16:59.179Z,5.80
2018-01-23T22:19:26.599Z,5.90
2018-01-23T22:21:54.046Z,5.90
2018-01-23T22:24:21.447Z,6.00
2018-01-23T22:26:48.868Z,6.00
2018-01-23T22:29:16.307Z,6.00
2018-01-23T22:31:43.786Z,6.10
2018-01-23T22:34:11.991Z,6.10
2018-01-23T22:36:39.459Z,6.10
2018-01-23T22:39:06.870Z,6.10
2018-01-23T22:41:34.308Z,6.10
2018-01-23T22:44:01.720Z,6.10
2018-01-23T22:46:29.174Z,6.10
2018-01-23T22:48:56.579Z,6.20
2018-01-23T22:51:24.767Z,6.20
2018-01-23T22:53:52.188Z,6.20
2018-01-23T22:56:20.373Z,6.30
2018-01-23T22:58:47.796Z,6.20
2018-01-23T23:01:15.992Z,6.30
2018-01-23T23:03:43.404Z,6.30
2018-01-23T23:06:10.823Z,6.30
2018-01-23T23:08:39.020Z,6.30
2018-01-23T23:11:06.447Z,6.30
2018-01-23T23:13:33.859Z,6.30
2018-01-23T23:16:01.287Z,6.30
2018-01-23T23:18:28.688Z,6.30
2018-01-23T23:20:56.136Z,6.30
2018-01-23T23:23:23.531Z,6.30
2018-01-23T23:25:51.716Z,6.40
2018-01-23T23:28:19.181Z,6.30
2018-01-23T23:30:46.584Z,6.30
2018-01-23T23:33:14.767Z,6.30
2018-01-23T23:35:42.209Z,6.30
2018-01-23T23:38:09.620Z,6.30
2018-01-23T23:40:37.820Z,6.30
2018-01-23T23:43:05.267Z,6.20
2018-01-23T23:45:32.678Z,6.20
2018-01-23T23:48:00.096Z,6.20
2018-01-23T23:50:28.299Z,6.30
2018-01-23T23:52:55.704Z,6.30
2018-01-23T23:55:23.892Z,6.30
2018-01-23T23:57:51.315Z,6.20
